createdAt,value
2022-12-26T00:01:35.626Z,2.83
2022-12-26T00:04:52.377Z,3.37
2022-12-26T00:07:34.116Z,4.33
2022-12-26T00:10:21.513Z,4.60
2022-12-26T00:13:38.543Z,3.70
2022-12-26T00:16:19.527Z,5.57
2022-12-26T00:19:08.238Z,5.23
2022-12-26T00:21:57.568Z,2.90
2022-12-26T00:24:44.641Z,3.80
2022-12-26T00:27:31.547Z,3.07
2022-12-26T00:30:18.867Z,3.10
2022-12-26T00:33:09.017Z,4.83
2022-12-26T00:36:03.656Z,2.77
2022-12-26T00:38:52.258Z,2.87
2022-12-26T00:41:39.589Z,3.93
2022-12-26T00:44:26.623Z,4.30
2022-12-26T00:47:13.770Z,3.07
2022-12-26T00:50:14.845Z,2.73
2022-12-26T00:53:04.001Z,3.60
2022-12-26T00:55:51.562Z,2.97
2022-12-26T00:58:40.566Z,3.07
2022-12-26T01:01:31.012Z,2.90
2022-12-26T01:04:18.603Z,2.73
2022-12-26T01:07:05.621Z,3.63
2022-12-26T01:09:54.015Z,2.77
2022-12-26T01:12:41.553Z,3.60
2022-12-26T01:15:29.599Z,2.33
2022-12-26T01:18:16.573Z,2.90
2022-12-26T01:21:06.384Z,3.70
2022-12-26T01:23:53.538Z,3.47
2022-12-26T01:26:41.967Z,3.43
2022-12-26T01:29:29.333Z,3.03
2022-12-26T01:32:16.499Z,2.87
2022-12-26T01:35:03.866Z,2.80
2022-12-26T01:37:50.880Z,3.03
2022-12-26T01:40:37.952Z,4.20
2022-12-26T01:43:27.349Z,4.70
2022-12-26T01:46:14.715Z,6.03
2022-12-26T01:49:09.055Z,3.87
2022-12-26T01:52:03.619Z,4.17
2022-12-26T01:54:53.779Z,2.57
2022-12-26T01:57:45.812Z,3.00
2022-12-26T02:00:34.932Z,3.07
2022-12-26T02:03:39.405Z,3.07
2022-12-26T02:06:27.522Z,3.17
2022-12-26T02:09:15.164Z,4.37
2022-12-26T02:12:35.455Z,3.03
2022-12-26T02:15:19.349Z,3.13
2022-12-26T02:18:08.532Z,2.77
2022-12-26T02:21:34.446Z,3.00
2022-12-26T02:25:05.047Z,5.27
2022-12-26T02:28:29.768Z,2.70
2022-12-26T02:31:23.626Z,2.70
2022-12-26T02:34:16.924Z,2.63
2022-12-26T02:37:24.704Z,3.00
2022-12-26T02:40:29.158Z,3.27
2022-12-26T02:43:24.281Z,2.77
2022-12-26T02:46:40.343Z,3.43
2022-12-26T02:49:57.936Z,3.07
2022-12-26T02:53:19.303Z,2.83
2022-12-26T02:56:32.610Z,2.80
2022-12-26T02:59:53.945Z,4.50
2022-12-26T03:03:05.990Z,3.23
2022-12-26T03:06:16.797Z,2.93
2022-12-26T03:09:25.138Z,3.10
2022-12-26T03:12:45.775Z,3.60
2022-12-26T03:15:55.386Z,4.87
2022-12-26T03:18:59.035Z,2.70
2022-12-26T03:21:48.916Z,3.87
2022-12-26T03:25:01.121Z,2.73
2022-12-26T03:27:48.312Z,2.67
2022-12-26T03:30:51.230Z,2.73
2022-12-26T03:34:00.457Z,3.23
2022-12-26T03:37:48.889Z,3.80
2022-12-26T03:41:12.627Z,3.33
2022-12-26T03:44:32.223Z,5.00
2022-12-26T03:47:46.127Z,4.30
2022-12-26T03:50:57.279Z,3.17
2022-12-26T03:54:10.744Z,3.23
2022-12-26T03:57:20.455Z,2.67
2022-12-26T04:00:27.701Z,2.67
2022-12-26T04:03:45.223Z,2.77
2022-12-26T04:06:59.820Z,3.07
2022-12-26T04:10:12.825Z,3.40
2022-12-26T04:13:19.378Z,3.63
2022-12-26T04:16:33.493Z,3.67
2022-12-26T04:19:42.397Z,3.83
2022-12-26T04:22:58.776Z,2.60
2022-12-26T04:26:13.311Z,6.20
2022-12-26T04:29:19.619Z,3.97
2022-12-26T04:32:32.867Z,3.43
2022-12-26T04:35:42.612Z,3.30
2022-12-26T04:38:55.151Z,2.63
2022-12-26T04:42:03.100Z,2.83
2022-12-26T04:44:51.430Z,3.13
2022-12-26T04:47:58.720Z,2.70
2022-12-26T04:50:52.709Z,3.07
2022-12-26T04:53:40.240Z,4.50
2022-12-26T04:56:27.620Z,4.57
2022-12-26T04:59:17.254Z,3.60
2022-12-26T05:02:22.112Z,5.10
2022-12-26T05:05:28.062Z,2.87
2022-12-26T05:08:44.621Z,2.83
2022-12-26T05:11:35.559Z,2.70
2022-12-26T05:14:23.942Z,3.67
2022-12-26T05:17:32.828Z,2.80
2022-12-26T05:20:37.533Z,2.67
2022-12-26T05:23:45.544Z,2.87
2022-12-26T05:26:50.229Z,3.40
2022-12-26T05:29:38.623Z,5.33
2022-12-26T05:32:44.837Z,2.83
2022-12-26T05:35:33.343Z,2.77
2022-12-26T05:38:20.773Z,3.17
2022-12-26T05:41:07.963Z,2.93
2022-12-26T05:43:55.184Z,2.90
2022-12-26T05:46:44.050Z,2.70
2022-12-26T05:49:31.543Z,2.93
2022-12-26T05:52:18.646Z,4.90
2022-12-26T05:55:06.552Z,2.90
2022-12-26T05:57:54.507Z,3.10
2022-12-26T06:00:41.984Z,2.87
2022-12-26T06:03:30.547Z,2.77
2022-12-26T06:06:18.826Z,2.50
2022-12-26T06:09:06.251Z,2.87
2022-12-26T06:11:53.729Z,3.03
2022-12-26T06:14:40.809Z,3.17
2022-12-26T06:17:27.863Z,3.63
2022-12-26T06:20:16.796Z,2.73
2022-12-26T06:23:03.988Z,3.57
2022-12-26T06:25:57.985Z,3.13
2022-12-26T06:28:46.711Z,3.33
2022-12-26T06:31:33.928Z,3.23
2022-12-26T06:34:21.298Z,2.87
2022-12-26T06:37:10.161Z,3.13
2022-12-26T06:39:58.752Z,3.60
2022-12-26T06:42:45.699Z,2.77
2022-12-26T06:45:34.444Z,3.07
2022-12-26T06:48:21.551Z,3.33
2022-12-26T06:51:13.368Z,3.97
2022-12-26T06:54:03.405Z,2.97
2022-12-26T06:56:50.955Z,2.97
2022-12-26T06:59:39.011Z,3.23
2022-12-26T07:02:26.189Z,3.63
2022-12-26T07:04:54.888Z,5.07
2022-12-26T07:07:23.521Z,5.40
2022-12-26T07:09:53.972Z,2.87
2022-12-26T07:12:22.693Z,3.63
2022-12-26T07:14:52.063Z,3.13
2022-12-26T07:17:22.182Z,2.50
2022-12-26T07:19:51.288Z,2.80
2022-12-26T07:22:19.895Z,4.87
2022-12-26T07:24:48.936Z,2.47
2022-12-26T07:27:18.975Z,2.87
2022-12-26T07:29:48.487Z,2.70
2022-12-26T07:32:17.134Z,4.23
2022-12-26T07:34:45.747Z,2.60
2022-12-26T07:37:14.381Z,2.70
2022-12-26T07:39:43.039Z,3.47
2022-12-26T07:42:11.619Z,4.07
2022-12-26T07:44:42.957Z,3.73
2022-12-26T07:47:11.562Z,2.70
2022-12-26T07:49:40.317Z,2.80
2022-12-26T07:52:08.975Z,2.90
2022-12-26T07:54:37.724Z,3.53
2022-12-26T07:57:46.129Z,5.30
2022-12-26T07:59:56.660Z,5.60
2022-12-26T08:02:25.509Z,8.20
2022-12-26T08:04:54.324Z,7.63
2022-12-26T08:07:23.121Z,7.73
2022-12-26T08:09:51.763Z,8.80
2022-12-26T08:12:21.643Z,7.13
2022-12-26T08:14:50.716Z,4.97
2022-12-26T08:17:20.880Z,5.50
2022-12-26T08:19:49.584Z,4.73
2022-12-26T08:22:18.220Z,3.87
2022-12-26T08:24:48.359Z,4.30
2022-12-26T08:27:17.279Z,3.47
2022-12-26T08:29:45.915Z,3.10
2022-12-26T08:32:14.549Z,2.63
2022-12-26T08:34:44.583Z,3.47
2022-12-26T08:37:13.295Z,3.10
2022-12-26T08:39:41.965Z,3.77
2022-12-26T08:42:10.660Z,3.07
2022-12-26T08:44:39.283Z,4.23
2022-12-26T08:47:08.088Z,4.47
2022-12-26T08:49:36.734Z,3.57
2022-12-26T08:52:06.852Z,3.00
2022-12-26T08:54:35.946Z,3.73
2022-12-26T08:57:04.684Z,3.73
2022-12-26T08:59:33.346Z,3.30
2022-12-26T09:02:02.298Z,3.20
2022-12-26T09:04:31.255Z,4.83
2022-12-26T09:06:59.831Z,3.63
2022-12-26T09:09:31.212Z,4.97
2022-12-26T09:11:59.871Z,5.30
2022-12-26T09:14:28.515Z,4.50
2022-12-26T09:16:57.222Z,6.87
2022-12-26T09:19:29.795Z,17.27
2022-12-26T09:22:12.269Z,28.90
2022-12-26T09:24:42.398Z,32.03
2022-12-26T09:27:11.419Z,35.13
2022-12-26T09:29:40.319Z,18.57
2022-12-26T09:32:09.948Z,11.33
2022-12-26T09:34:38.792Z,6.47
2022-12-26T09:37:07.473Z,5.23
2022-12-26T09:39:37.822Z,5.13
2022-12-26T09:42:19.636Z,4.37
2022-12-26T09:44:58.508Z,4.20
2022-12-26T09:47:34.749Z,5.07
2022-12-26T09:50:12.014Z,5.20
2022-12-26T09:52:47.477Z,4.47
2022-12-26T09:55:37.200Z,3.93
2022-12-26T09:58:22.913Z,3.10
2022-12-26T10:00:56.861Z,2.60
2022-12-26T10:03:25.913Z,2.60
2022-12-26T10:06:10.703Z,3.03
2022-12-26T10:09:00.121Z,2.30
2022-12-26T10:11:43.491Z,2.20
2022-12-26T10:14:22.956Z,2.20
2022-12-26T10:16:58.740Z,18.37
2022-12-26T10:19:40.988Z,17.37
2022-12-26T10:22:45.075Z,8.07
2022-12-26T10:25:21.498Z,4.27
2022-12-26T10:27:52.459Z,2.93
2022-12-26T10:30:25.568Z,2.77
2022-12-26T10:33:00.900Z,4.17
2022-12-26T10:35:36.512Z,3.90
2022-12-26T10:38:12.993Z,3.20
2022-12-26T10:40:45.190Z,2.50
2022-12-26T10:43:26.454Z,2.90
2022-12-26T10:46:30.523Z,3.10
2022-12-26T10:48:59.738Z,2.73
2022-12-26T10:51:28.914Z,2.57
2022-12-26T10:53:57.699Z,3.47
2022-12-26T10:56:27.495Z,2.80
2022-12-26T10:59:03.799Z,3.30
2022-12-26T11:01:37.663Z,2.77
2022-12-26T11:04:18.867Z,3.50
2022-12-26T11:06:53.540Z,2.87
2022-12-26T11:09:37.257Z,2.33
2022-12-26T11:12:07.065Z,2.53
2022-12-26T11:14:39.448Z,2.50
2022-12-26T11:17:13.601Z,4.70
2022-12-26T11:19:45.263Z,2.73
2022-12-26T11:22:26.642Z,2.90
2022-12-26T11:25:17.917Z,3.47
2022-12-26T11:27:50.121Z,2.90
2022-12-26T11:30:29.603Z,2.80
2022-12-26T11:33:20.405Z,2.80
2022-12-26T11:35:55.078Z,2.60
2022-12-26T11:38:43.979Z,3.60
2022-12-26T11:41:36.240Z,2.27
2022-12-26T11:44:18.307Z,2.60
2022-12-26T11:46:51.610Z,3.10
2022-12-26T11:49:30.002Z,2.77
2022-12-26T11:52:00.763Z,2.10
2022-12-26T11:54:49.483Z,2.10
2022-12-26T11:57:22.302Z,3.73
2022-12-26T11:59:54.719Z,2.93
2022-12-26T12:02:28.091Z,2.67
2022-12-26T12:05:03.359Z,4.17
2022-12-26T12:08:14.473Z,3.67
2022-12-26T12:11:25.745Z,3.30
2022-12-26T12:14:11.589Z,3.03
2022-12-26T12:16:54.949Z,3.20
2022-12-26T12:19:41.613Z,3.97
2022-12-26T12:22:45.000Z,4.10
2022-12-26T12:25:31.548Z,3.07
2022-12-26T12:28:12.711Z,3.10
2022-12-26T12:30:51.427Z,3.73
2022-12-26T12:33:35.025Z,3.30
2022-12-26T12:36:12.988Z,3.03
2022-12-26T12:39:06.239Z,5.40
2022-12-26T12:42:12.012Z,3.77
2022-12-26T12:45:11.503Z,3.40
2022-12-26T12:47:52.970Z,3.10
2022-12-26T12:50:31.251Z,3.57
2022-12-26T12:53:20.273Z,3.53
2022-12-26T12:56:06.893Z,2.73
2022-12-26T12:58:45.785Z,4.33
2022-12-26T13:01:20.429Z,9.77
2022-12-26T13:03:54.629Z,7.47
2022-12-26T13:06:29.763Z,7.00
2022-12-26T13:09:04.627Z,5.70
2022-12-26T13:11:39.466Z,4.83
2022-12-26T13:14:15.071Z,21.87
2022-12-26T13:16:48.159Z,10.57
2022-12-26T13:19:21.762Z,6.90
2022-12-26T13:21:51.701Z,4.77
2022-12-26T13:24:27.423Z,6.00
2022-12-26T13:27:06.513Z,3.93
2022-12-26T13:29:40.600Z,4.00
2022-12-26T13:32:22.435Z,3.47
2022-12-26T13:34:52.867Z,4.33
2022-12-26T13:37:59.120Z,3.87
2022-12-26T13:40:31.585Z,4.73
2022-12-26T13:43:26.874Z,3.60
2022-12-26T13:45:58.187Z,4.53
2022-12-26T13:48:59.664Z,4.07
2022-12-26T13:51:52.241Z,8.80
2022-12-26T13:54:23.803Z,12.03
2022-12-26T13:57:37.309Z,13.00
2022-12-26T14:00:20.796Z,12.47
2022-12-26T14:03:29.052Z,13.83
2022-12-26T14:06:22.174Z,13.17
2022-12-26T14:09:18.507Z,15.87
2022-12-26T14:12:20.762Z,14.33
2022-12-26T14:15:20.979Z,9.17
2022-12-26T14:18:04.023Z,7.00
2022-12-26T14:20:43.891Z,5.33
2022-12-26T14:23:36.303Z,4.07
2022-12-26T14:26:20.612Z,3.53
2022-12-26T14:29:00.639Z,3.87
2022-12-26T14:31:41.111Z,2.43
2022-12-26T14:34:47.975Z,2.53
2022-12-26T14:37:24.661Z,3.43
2022-12-26T14:40:09.987Z,2.37
2022-12-26T14:43:16.279Z,2.50
2022-12-26T14:45:50.866Z,2.97
2022-12-26T14:48:49.833Z,2.63
2022-12-26T14:51:48.668Z,3.73
2022-12-26T14:54:37.984Z,5.47
2022-12-26T14:57:47.047Z,2.80
2022-12-26T15:00:34.758Z,2.50
2022-12-26T15:03:49.087Z,5.63
2022-12-26T15:07:20.498Z,4.77
2022-12-26T15:10:37.931Z,3.53
2022-12-26T15:14:05.720Z,3.00
2022-12-26T15:16:57.165Z,2.50
2022-12-26T15:20:13.472Z,2.37
2022-12-26T15:23:33.837Z,2.40
2022-12-26T15:26:26.798Z,3.67
2022-12-26T15:29:41.899Z,2.83
2022-12-26T15:32:17.936Z,3.40
2022-12-26T15:35:07.341Z,4.00
2022-12-26T15:38:14.332Z,3.57
2022-12-26T15:40:47.326Z,2.77
2022-12-26T15:43:44.565Z,3.03
2022-12-26T15:46:22.412Z,2.93
2022-12-26T15:49:25.830Z,2.97
2022-12-26T15:52:08.875Z,4.50
2022-12-26T15:55:18.984Z,5.20
2022-12-26T15:57:58.991Z,3.73
2022-12-26T16:00:30.146Z,3.63
2022-12-26T16:03:18.390Z,2.40
2022-12-26T16:05:59.425Z,2.43
2022-12-26T16:09:09.719Z,2.43
2022-12-26T16:11:51.714Z,2.50
2022-12-26T16:14:32.459Z,2.63
2022-12-26T16:17:22.935Z,2.80
2022-12-26T16:19:53.909Z,2.53
2022-12-26T16:22:47.184Z,2.30
2022-12-26T16:25:21.527Z,2.30
2022-12-26T16:27:53.222Z,2.83
2022-12-26T16:30:24.576Z,3.00
2022-12-26T16:32:54.227Z,3.80
2022-12-26T16:35:27.361Z,5.83
2022-12-26T16:37:59.457Z,3.37
2022-12-26T16:40:33.335Z,3.77
2022-12-26T16:43:07.583Z,3.20
2022-12-26T16:45:38.989Z,2.80
2022-12-26T16:48:09.083Z,3.63
2022-12-26T16:50:47.407Z,4.40
2022-12-26T16:53:19.400Z,4.80
2022-12-26T16:55:51.743Z,2.90
2022-12-26T16:58:25.476Z,2.60
2022-12-26T17:01:08.573Z,2.70
2022-12-26T17:03:44.767Z,2.00
2022-12-26T17:06:18.255Z,2.60
2022-12-26T17:08:50.605Z,1.97
2022-12-26T17:11:30.896Z,2.07
2022-12-26T17:14:01.398Z,3.70
2022-12-26T17:16:32.580Z,3.20
2022-12-26T17:19:15.642Z,2.30
2022-12-26T17:21:44.540Z,2.03
2022-12-26T17:24:27.832Z,1.90
2022-12-26T17:27:20.667Z,2.30
2022-12-26T17:29:56.055Z,2.10
2022-12-26T17:32:33.266Z,1.50
2022-12-26T17:35:08.749Z,1.37
2022-12-26T17:37:40.134Z,1.70
2022-12-26T17:40:22.546Z,2.00
2022-12-26T17:42:56.080Z,2.00
2022-12-26T17:45:28.132Z,3.00
2022-12-26T17:47:58.739Z,1.60
2022-12-26T17:50:33.478Z,1.80
2022-12-26T17:53:06.788Z,1.60
2022-12-26T17:55:36.342Z,2.10
2022-12-26T17:58:06.460Z,2.80
2022-12-26T18:00:35.178Z,3.03
2022-12-26T18:03:06.862Z,2.00
2022-12-26T18:05:36.567Z,1.73
2022-12-26T18:08:06.044Z,2.73
2022-12-26T18:10:37.542Z,2.00
2022-12-26T18:13:11.577Z,2.33
2022-12-26T18:15:40.280Z,3.30
2022-12-26T18:18:22.096Z,1.83
2022-12-26T18:20:51.383Z,2.27
2022-12-26T18:23:20.061Z,2.50
2022-12-26T18:25:54.141Z,2.17
2022-12-26T18:28:24.788Z,2.00
2022-12-26T18:30:53.487Z,3.00
2022-12-26T18:33:22.420Z,2.63
2022-12-26T18:35:51.046Z,3.43
2022-12-26T18:38:22.067Z,3.20
2022-12-26T18:40:53.494Z,2.20
2022-12-26T18:43:23.648Z,2.87
2022-12-26T18:45:53.243Z,1.90
2022-12-26T18:48:21.991Z,1.93
2022-12-26T18:50:50.704Z,2.30
2022-12-26T18:53:20.593Z,2.20
2022-12-26T18:55:49.195Z,2.03
2022-12-26T18:58:20.371Z,2.07
2022-12-26T19:00:52.561Z,2.07
2022-12-26T19:03:21.227Z,2.80
2022-12-26T19:05:49.930Z,2.20
2022-12-26T19:08:18.747Z,2.37
2022-12-26T19:10:47.758Z,2.53
2022-12-26T19:13:16.699Z,2.20
2022-12-26T19:15:49.890Z,2.70
2022-12-26T19:18:18.523Z,3.33
2022-12-26T19:20:47.230Z,2.53
2022-12-26T19:23:15.861Z,2.13
2022-12-26T19:25:44.636Z,1.90
2022-12-26T19:28:13.298Z,2.00
2022-12-26T19:30:42.058Z,2.30
2022-12-26T19:33:12.094Z,1.73
2022-12-26T19:35:40.748Z,2.30
2022-12-26T19:38:09.461Z,2.20
2022-12-26T19:40:38.118Z,1.80
2022-12-26T19:43:06.731Z,1.77
2022-12-26T19:45:35.419Z,2.33
2022-12-26T19:48:04.078Z,2.47
2022-12-26T19:50:35.574Z,2.00
2022-12-26T19:53:04.361Z,3.00
2022-12-26T19:55:33.137Z,2.47
2022-12-26T19:58:01.743Z,2.37
2022-12-26T20:00:30.594Z,2.50
2022-12-26T20:02:59.307Z,5.23
2022-12-26T20:05:28.048Z,2.40
2022-12-26T20:07:58.074Z,3.43
2022-12-26T20:10:26.871Z,3.70
2022-12-26T20:12:55.517Z,4.50
2022-12-26T20:15:24.681Z,2.90
2022-12-26T20:17:53.854Z,3.20
2022-12-26T20:20:24.764Z,2.20
2022-12-26T20:22:53.525Z,2.30
2022-12-26T20:25:23.539Z,1.70
2022-12-26T20:27:52.259Z,1.80
2022-12-26T20:30:20.959Z,2.43
2022-12-26T20:32:49.637Z,2.03
2022-12-26T20:35:18.498Z,2.57
2022-12-26T20:37:47.146Z,2.00
2022-12-26T20:40:15.803Z,1.80
2022-12-26T20:42:45.876Z,2.67
2022-12-26T20:45:14.521Z,1.80
2022-12-26T20:47:43.309Z,1.67
2022-12-26T20:50:12.028Z,1.10
2022-12-26T20:52:40.649Z,1.40
2022-12-26T20:55:10.384Z,1.33
2022-12-26T20:57:39.139Z,2.13
2022-12-26T21:00:11.664Z,1.90
2022-12-26T21:02:40.391Z,2.47
2022-12-26T21:05:27.587Z,2.00
2022-12-26T21:08:14.709Z,1.70
2022-12-26T21:11:08.560Z,1.67
2022-12-26T21:13:59.865Z,3.27
2022-12-26T21:16:51.488Z,2.93
2022-12-26T21:19:38.901Z,4.20
2022-12-26T21:22:27.243Z,3.70
2022-12-26T21:25:14.232Z,6.70
2022-12-26T21:28:01.300Z,2.57
2022-12-26T21:30:48.630Z,3.53
2022-12-26T21:33:44.035Z,1.30
2022-12-26T21:36:33.861Z,1.70
2022-12-26T21:39:20.800Z,5.83
2022-12-26T21:42:09.375Z,1.50
2022-12-26T21:44:56.787Z,2.43
2022-12-26T21:47:43.929Z,1.10
2022-12-26T21:50:32.237Z,1.53
2022-12-26T21:53:21.205Z,2.80
2022-12-26T21:56:08.166Z,1.67
2022-12-26T21:59:13.006Z,1.60
2022-12-26T22:02:00.320Z,1.73
2022-12-26T22:04:46.485Z,1.40
2022-12-26T22:07:35.624Z,1.73
2022-12-26T22:10:40.686Z,1.47
2022-12-26T22:13:27.981Z,1.40
2022-12-26T22:16:16.374Z,3.43
2022-12-26T22:19:03.839Z,1.90
2022-12-26T22:21:51.525Z,2.10
2022-12-26T22:24:40.127Z,2.50
2022-12-26T22:27:27.512Z,1.27
2022-12-26T22:30:15.222Z,2.80
2022-12-26T22:33:02.654Z,2.97
2022-12-26T22:35:50.180Z,1.40
2022-12-26T22:38:39.269Z,3.73
2022-12-26T22:41:28.851Z,2.50
2022-12-26T22:44:16.990Z,1.97
2022-12-26T22:47:04.640Z,3.70
2022-12-26T22:49:51.703Z,1.90
2022-12-26T22:52:39.134Z,2.30
2022-12-26T22:55:26.307Z,13.13
2022-12-26T22:58:14.760Z,2.47
2022-12-26T23:01:01.958Z,3.23
2022-12-26T23:03:49.173Z,2.70
2022-12-26T23:06:38.260Z,1.93
2022-12-26T23:09:26.545Z,2.20
2022-12-26T23:12:32.505Z,4.80
2022-12-26T23:15:24.639Z,2.00
2022-12-26T23:18:44.332Z,1.80
2022-12-26T23:21:45.533Z,2.33
2022-12-26T23:24:34.269Z,3.63
2022-12-26T23:27:38.924Z,2.37
2022-12-26T23:30:31.257Z,2.73
2022-12-26T23:33:18.632Z,2.43
2022-12-26T23:36:06.016Z,2.20
2022-12-26T23:38:53.291Z,4.33
2022-12-26T23:41:40.284Z,2.10
2022-12-26T23:44:27.663Z,2.10
2022-12-26T23:47:16.573Z,4.00
2022-12-26T23:50:04.071Z,2.30
2022-12-26T23:52:51.315Z,1.80
2022-12-26T23:55:42.648Z,1.67
2022-12-26T23:58:30.142Z,2.10
